sensor_id;sensor_type;location;lat;lon;timestamp;temperature;humidity
10512;DHT22;5304;48.604;2.096;2022-12-20T00:00:45;11.70;99.90
10512;DHT22;5304;48.604;2.096;2022-12-20T00:03:29;11.70;99.90
10512;DHT22;5304;48.604;2.096;2022-12-20T00:06:14;11.60;99.90
10512;DHT22;5304;48.604;2.096;2022-12-20T00:09:00;11.70;99.90
10512;DHT22;5304;48.604;2.096;2022-12-20T00:11:45;11.70;99.90
10512;DHT22;5304;48.604;2.096;2022-12-20T00:14:29;11.70;99.90
10512;DHT22;5304;48.604;2.096;2022-12-20T00:17:13;11.70;99.90
10512;DHT22;5304;48.604;2.096;2022-12-20T00:19:58;11.80;99.90
10512;DHT22;5304;48.604;2.096;2022-12-20T00:22:43;11.80;99.90
10512;DHT22;5304;48.604;2.096;2022-12-20T00:25:28;11.70;99.90
10512;DHT22;5304;48.604;2.096;2022-12-20T00:28:12;11.70;99.90
10512;DHT22;5304;48.604;2.096;2022-12-20T00:30:57;11.70;99.90
10512;DHT22;5304;48.604;2.096;2022-12-20T00:33:45;11.70;99.90
10512;DHT22;5304;48.604;2.096;2022-12-20T00:36:30;11.70;99.90
10512;DHT22;5304;48.604;2.096;2022-12-20T00:39:15;11.80;99.90
10512;DHT22;5304;48.604;2.096;2022-12-20T00:41:59;11.80;99.90
10512;DHT22;5304;48.604;2.096;2022-12-20T00:44:44;11.90;99.90
10512;DHT22;5304;48.604;2.096;2022-12-20T00:47:28;11.80;99.90
10512;DHT22;5304;48.604;2.096;2022-12-20T00:50:13;11.80;99.90
10512;DHT22;5304;48.604;2.096;2022-12-20T00:52:58;11.80;99.90
10512;DHT22;5304;48.604;2.096;2022-12-20T00:55:43;11.80;99.90
10512;DHT22;5304;48.604;2.096;2022-12-20T00:58:28;11.80;99.90
10512;DHT22;5304;48.604;2.096;2022-12-20T01:01:21;11.80;99.90
10512;DHT22;5304;48.604;2.096;2022-12-20T01:04:05;11.90;99.90
10512;DHT22;5304;48.604;2.096;2022-12-20T01:06:50;11.80;99.90
10512;DHT22;5304;48.604;2.096;2022-12-20T01:09:34;11.80;99.90
10512;DHT22;5304;48.604;2.096;2022-12-20T01:12:19;11.70;99.90
10512;DHT22;5304;48.604;2.096;2022-12-20T01:15:04;11.70;99.90
10512;DHT22;5304;48.604;2.096;2022-12-20T01:17:49;11.60;99.90
10512;DHT22;5304;48.604;2.096;2022-12-20T01:20:34;11.70;99.90
10512;DHT22;5304;48.604;2.096;2022-12-20T01:23:19;11.70;99.90
10512;DHT22;5304;48.604;2.096;2022-12-20T01:26:05;11.70;99.90
10512;DHT22;5304;48.604;2.096;2022-12-20T01:28:55;11.70;99.90
10512;DHT22;5304;48.604;2.096;2022-12-20T01:31:40;11.70;99.90
10512;DHT22;5304;48.604;2.096;2022-12-20T01:34:25;11.60;99.90
10512;DHT22;5304;48.604;2.096;2022-12-20T01:37:10;11.60;99.90
10512;DHT22;5304;48.604;2.096;2022-12-20T01:39:54;11.50;99.90
10512;DHT22;5304;48.604;2.096;2022-12-20T01:42:38;11.50;99.90
10512;DHT22;5304;48.604;2.096;2022-12-20T01:45:28;11.60;99.90
10512;DHT22;5304;48.604;2.096;2022-12-20T01:48:15;11.50;99.90
10512;DHT22;5304;48.604;2.096;2022-12-20T01:51:02;11.40;99.90
10512;DHT22;5304;48.604;2.096;2022-12-20T01:53:51;11.40;99.90
10512;DHT22;5304;48.604;2.096;2022-12-20T01:56:39;11.50;99.90
10512;DHT22;5304;48.604;2.096;2022-12-20T01:59:26;11.50;99.90
10512;DHT22;5304;48.604;2.096;2022-12-20T02:02:11;11.50;99.90
10512;DHT22;5304;48.604;2.096;2022-12-20T02:04:56;11.40;99.90
10512;DHT22;5304;48.604;2.096;2022-12-20T02:07:41;11.50;99.90
10512;DHT22;5304;48.604;2.096;2022-12-20T02:10:45;11.50;99.90
10512;DHT22;5304;48.604;2.096;2022-12-20T02:16:25;11.30;99.90
10512;DHT22;5304;48.604;2.096;2022-12-20T02:29:01;11.20;99.90
10512;DHT22;5304;48.604;2.096;2022-12-20T02:31:59;11.10;99.90
10512;DHT22;5304;48.604;2.096;2022-12-20T02:34:47;11.10;99.90
10512;DHT22;5304;48.604;2.096;2022-12-20T02:37:31;11.10;99.90
10512;DHT22;5304;48.604;2.096;2022-12-20T02:40:20;11.00;99.90
10512;DHT22;5304;48.604;2.096;2022-12-20T02:43:07;11.00;99.90
10512;DHT22;5304;48.604;2.096;2022-12-20T02:46:13;10.90;99.90
10512;DHT22;5304;48.604;2.096;2022-12-20T02:49:01;10.80;99.90
10512;DHT22;5304;48.604;2.096;2022-12-20T02:51:51;10.80;99.90
10512;DHT22;5304;48.604;2.096;2022-12-20T02:54:36;10.70;99.90
10512;DHT22;5304;48.604;2.096;2022-12-20T03:00:21;10.50;99.90
10512;DHT22;5304;48.604;2.096;2022-12-20T03:03:06;10.50;99.90
10512;DHT22;5304;48.604;2.096;2022-12-20T03:06:06;10.40;99.90
10512;DHT22;5304;48.604;2.096;2022-12-20T03:08:51;10.30;99.90
10512;DHT22;5304;48.604;2.096;2022-12-20T03:11:35;10.30;99.90
10512;DHT22;5304;48.604;2.096;2022-12-20T03:14:20;10.20;99.90
10512;DHT22;5304;48.604;2.096;2022-12-20T03:17:05;10.20;99.90
10512;DHT22;5304;48.604;2.096;2022-12-20T03:19:49;10.10;99.90
10512;DHT22;5304;48.604;2.096;2022-12-20T03:22:34;10.10;99.90
10512;DHT22;5304;48.604;2.096;2022-12-20T03:25:19;10.10;99.90
10512;DHT22;5304;48.604;2.096;2022-12-20T03:28:04;10.10;99.90
10512;DHT22;5304;48.604;2.096;2022-12-20T03:30:48;10.10;99.90
10512;DHT22;5304;48.604;2.096;2022-12-20T03:33:33;10.00;99.90
10512;DHT22;5304;48.604;2.096;2022-12-20T03:36:18;10.00;99.90
10512;DHT22;5304;48.604;2.096;2022-12-20T03:39:06;10.00;99.90
10512;DHT22;5304;48.604;2.096;2022-12-20T03:41:50;10.10;99.90
10512;DHT22;5304;48.604;2.096;2022-12-20T03:44:34;10.20;99.90
10512;DHT22;5304;48.604;2.096;2022-12-20T03:47:19;10.20;99.90
10512;DHT22;5304;48.604;2.096;2022-12-20T03:50:05;10.30;99.90
10512;DHT22;5304;48.604;2.096;2022-12-20T03:52:50;10.20;99.90
10512;DHT22;5304;48.604;2.096;2022-12-20T03:55:35;10.30;99.90
10512;DHT22;5304;48.604;2.096;2022-12-20T03:58:19;10.30;99.90
10512;DHT22;5304;48.604;2.096;2022-12-20T04:04:02;10.30;99.90
10512;DHT22;5304;48.604;2.096;2022-12-20T04:06:46;10.30;99.90
10512;DHT22;5304;48.604;2.096;2022-12-20T04:09:31;10.30;99.90
10512;DHT22;5304;48.604;2.096;2022-12-20T04:12:16;10.40;99.90
10512;DHT22;5304;48.604;2.096;2022-12-20T04:15:01;10.50;99.90
10512;DHT22;5304;48.604;2.096;2022-12-20T04:17:46;10.50;99.90
10512;DHT22;5304;48.604;2.096;2022-12-20T04:20:30;10.60;99.90
10512;DHT22;5304;48.604;2.096;2022-12-20T04:23:14;10.70;99.90
10512;DHT22;5304;48.604;2.096;2022-12-20T04:25:59;10.70;99.90
10512;DHT22;5304;48.604;2.096;2022-12-20T04:28:45;10.80;99.90
10512;DHT22;5304;48.604;2.096;2022-12-20T04:31:30;10.70;99.90
10512;DHT22;5304;48.604;2.096;2022-12-20T04:34:14;10.80;99.90
10512;DHT22;5304;48.604;2.096;2022-12-20T04:36:59;10.80;99.90
10512;DHT22;5304;48.604;2.096;2022-12-20T04:39:43;10.90;99.90
10512;DHT22;5304;48.604;2.096;2022-12-20T04:42:28;11.00;99.90
10512;DHT22;5304;48.604;2.096;2022-12-20T04:45:12;11.00;99.90
10512;DHT22;5304;48.604;2.096;2022-12-20T04:47:56;10.90;99.90
10512;DHT22;5304;48.604;2.096;2022-12-20T04:50:41;11.00;99.90
10512;DHT22;5304;48.604;2.096;2022-12-20T04:53:26;11.10;99.90
10512;DHT22;5304;48.604;2.096;2022-12-20T04:56:29;11.00;99.90
10512;DHT22;5304;48.604;2.096;2022-12-20T04:59:14;11.00;99.90
10512;DHT22;5304;48.604;2.096;2022-12-20T05:01:58;11.00;99.90
10512;DHT22;5304;48.604;2.096;2022-12-20T05:04:42;11.10;99.90
10512;DHT22;5304;48.604;2.096;2022-12-20T05:07:26;11.10;99.90
10512;DHT22;5304;48.604;2.096;2022-12-20T05:10:11;11.10;99.90
10512;DHT22;5304;48.604;2.096;2022-12-20T05:12:55;11.00;99.90
10512;DHT22;5304;48.604;2.096;2022-12-20T05:15:41;11.10;99.90
10512;DHT22;5304;48.604;2.096;2022-12-20T05:18:27;11.10;99.90
10512;DHT22;5304;48.604;2.096;2022-12-20T05:21:11;11.10;99.90
10512;DHT22;5304;48.604;2.096;2022-12-20T05:24:15;11.20;99.90
10512;DHT22;5304;48.604;2.096;2022-12-20T05:27:18;11.20;99.90
10512;DHT22;5304;48.604;2.096;2022-12-20T05:30:03;11.20;99.90
10512;DHT22;5304;48.604;2.096;2022-12-20T05:32:47;11.20;99.90
10512;DHT22;5304;48.604;2.096;2022-12-20T05:35:32;11.20;99.90
10512;DHT22;5304;48.604;2.096;2022-12-20T05:38:16;11.10;99.90
10512;DHT22;5304;48.604;2.096;2022-12-20T05:41:01;11.20;99.90
10512;DHT22;5304;48.604;2.096;2022-12-20T05:43:48;11.10;99.90
10512;DHT22;5304;48.604;2.096;2022-12-20T05:46:32;11.20;99.90
10512;DHT22;5304;48.604;2.096;2022-12-20T05:49:17;11.20;99.90
10512;DHT22;5304;48.604;2.096;2022-12-20T05:52:01;11.20;99.90
10512;DHT22;5304;48.604;2.096;2022-12-20T05:54:46;11.30;99.90
10512;DHT22;5304;48.604;2.096;2022-12-20T05:57:31;11.30;99.90
10512;DHT22;5304;48.604;2.096;2022-12-20T06:00:16;11.30;99.90
10512;DHT22;5304;48.604;2.096;2022-12-20T06:03:00;11.30;99.90
10512;DHT22;5304;48.604;2.096;2022-12-20T06:05:45;11.20;99.90
10512;DHT22;5304;48.604;2.096;2022-12-20T06:08:30;11.20;99.90
10512;DHT22;5304;48.604;2.096;2022-12-20T06:11:15;11.20;99.90
10512;DHT22;5304;48.604;2.096;2022-12-20T06:13:59;11.20;99.90
10512;DHT22;5304;48.604;2.096;2022-12-20T06:16:44;11.10;99.90
10512;DHT22;5304;48.604;2.096;2022-12-20T06:19:29;11.10;99.90
10512;DHT22;5304;48.604;2.096;2022-12-20T06:22:14;11.20;99.90
10512;DHT22;5304;48.604;2.096;2022-12-20T06:24:58;11.20;99.90
10512;DHT22;5304;48.604;2.096;2022-12-20T06:27:43;11.20;99.90
10512;DHT22;5304;48.604;2.096;2022-12-20T06:30:28;11.30;99.90
10512;DHT22;5304;48.604;2.096;2022-12-20T06:33:12;11.40;99.90
10512;DHT22;5304;48.604;2.096;2022-12-20T06:35:57;11.30;99.90
10512;DHT22;5304;48.604;2.096;2022-12-20T06:38:41;11.30;99.90
10512;DHT22;5304;48.604;2.096;2022-12-20T06:41:26;11.30;99.90
10512;DHT22;5304;48.604;2.096;2022-12-20T06:44:10;11.30;99.90
10512;DHT22;5304;48.604;2.096;2022-12-20T06:46:55;11.30;99.90
10512;DHT22;5304;48.604;2.096;2022-12-20T06:49:39;11.40;99.90
10512;DHT22;5304;48.604;2.096;2022-12-20T06:52:24;11.40;99.90
10512;DHT22;5304;48.604;2.096;2022-12-20T06:55:08;11.30;99.90
10512;DHT22;5304;48.604;2.096;2022-12-20T06:57:53;11.30;99.90
10512;DHT22;5304;48.604;2.096;2022-12-20T07:00:39;11.30;99.90
10512;DHT22;5304;48.604;2.096;2022-12-20T07:03:24;11.30;99.90
10512;DHT22;5304;48.604;2.096;2022-12-20T07:06:08;11.30;99.90
10512;DHT22;5304;48.604;2.096;2022-12-20T07:08:52;11.30;99.90
10512;DHT22;5304;48.604;2.096;2022-12-20T07:11:37;11.30;99.90
10512;DHT22;5304;48.604;2.096;2022-12-20T07:14:22;11.20;99.90
10512;DHT22;5304;48.604;2.096;2022-12-20T07:17:06;11.30;99.90
10512;DHT22;5304;48.604;2.096;2022-12-20T07:19:50;11.40;99.90
10512;DHT22;5304;48.604;2.096;2022-12-20T07:22:35;11.40;99.90
10512;DHT22;5304;48.604;2.096;2022-12-20T07:25:19;11.40;99.90
10512;DHT22;5304;48.604;2.096;2022-12-20T07:28:04;11.40;99.90
10512;DHT22;5304;48.604;2.096;2022-12-20T07:30:49;11.40;99.90
10512;DHT22;5304;48.604;2.096;2022-12-20T07:33:33;11.40;99.90
10512;DHT22;5304;48.604;2.096;2022-12-20T07:36:18;11.50;99.90
10512;DHT22;5304;48.604;2.096;2022-12-20T07:39:03;11.50;99.90
10512;DHT22;5304;48.604;2.096;2022-12-20T07:41:48;11.40;99.90
10512;DHT22;5304;48.604;2.096;2022-12-20T07:44:32;11.40;99.90
10512;DHT22;5304;48.604;2.096;2022-12-20T07:47:16;11.30;99.90
10512;DHT22;5304;48.604;2.096;2022-12-20T07:50:01;11.40;99.90
10512;DHT22;5304;48.604;2.096;2022-12-20T07:52:47;11.40;99.90
10512;DHT22;5304;48.604;2.096;2022-12-20T07:55:33;11.40;99.90
10512;DHT22;5304;48.604;2.096;2022-12-20T07:58:18;11.40;99.90
10512;DHT22;5304;48.604;2.096;2022-12-20T08:01:03;11.40;99.90
10512;DHT22;5304;48.604;2.096;2022-12-20T08:03:50;11.40;99.90
10512;DHT22;5304;48.604;2.096;2022-12-20T08:06:37;11.50;99.90
10512;DHT22;5304;48.604;2.096;2022-12-20T08:09:23;11.40;99.90
10512;DHT22;5304;48.604;2.096;2022-12-20T08:12:13;11.40;99.90
10512;DHT22;5304;48.604;2.096;2022-12-20T08:14:58;11.40;99.90
10512;DHT22;5304;48.604;2.096;2022-12-20T08:17:43;11.40;99.90
10512;DHT22;5304;48.604;2.096;2022-12-20T08:20:27;11.40;99.90
10512;DHT22;5304;48.604;2.096;2022-12-20T08:23:12;11.50;99.90
10512;DHT22;5304;48.604;2.096;2022-12-20T08:25:59;11.50;99.90
10512;DHT22;5304;48.604;2.096;2022-12-20T08:28:44;11.50;99.90
10512;DHT22;5304;48.604;2.096;2022-12-20T08:31:32;11.50;99.90
10512;DHT22;5304;48.604;2.096;2022-12-20T08:34:17;11.50;99.90
10512;DHT22;5304;48.604;2.096;2022-12-20T08:37:02;11.40;99.90
10512;DHT22;5304;48.604;2.096;2022-12-20T08:39:46;11.40;99.90
10512;DHT22;5304;48.604;2.096;2022-12-20T08:42:31;11.40;99.90
10512;DHT22;5304;48.604;2.096;2022-12-20T08:45:15;11.40;99.90
10512;DHT22;5304;48.604;2.096;2022-12-20T08:47:59;11.50;99.90
10512;DHT22;5304;48.604;2.096;2022-12-20T08:50:44;11.50;99.90
10512;DHT22;5304;48.604;2.096;2022-12-20T08:53:31;11.50;99.90
10512;DHT22;5304;48.604;2.096;2022-12-20T08:56:17;11.50;99.90
10512;DHT22;5304;48.604;2.096;2022-12-20T08:59:02;11.50;99.90
10512;DHT22;5304;48.604;2.096;2022-12-20T09:01:46;11.50;99.90
10512;DHT22;5304;48.604;2.096;2022-12-20T09:04:31;11.40;99.90
10512;DHT22;5304;48.604;2.096;2022-12-20T09:07:15;11.30;99.90
10512;DHT22;5304;48.604;2.096;2022-12-20T09:10:00;11.30;99.90
10512;DHT22;5304;48.604;2.096;2022-12-20T09:12:45;11.20;99.90
10512;DHT22;5304;48.604;2.096;2022-12-20T09:15:29;11.10;99.90
10512;DHT22;5304;48.604;2.096;2022-12-20T09:18:14;10.90;99.90
10512;DHT22;5304;48.604;2.096;2022-12-20T09:21:01;10.80;99.90
10512;DHT22;5304;48.604;2.096;2022-12-20T09:23:48;10.80;99.90
10512;DHT22;5304;48.604;2.096;2022-12-20T09:26:33;10.80;99.90
10512;DHT22;5304;48.604;2.096;2022-12-20T09:29:21;10.70;99.90
10512;DHT22;5304;48.604;2.096;2022-12-20T09:32:05;10.60;99.90
10512;DHT22;5304;48.604;2.096;2022-12-20T09:34:50;10.60;99.90
10512;DHT22;5304;48.604;2.096;2022-12-20T09:37:34;10.50;99.90
10512;DHT22;5304;48.604;2.096;2022-12-20T09:40:21;10.50;99.90
10512;DHT22;5304;48.604;2.096;2022-12-20T09:43:08;10.40;99.90
10512;DHT22;5304;48.604;2.096;2022-12-20T09:45:55;10.50;99.90
10512;DHT22;5304;48.604;2.096;2022-12-20T09:48:41;10.50;99.90
10512;DHT22;5304;48.604;2.096;2022-12-20T10:01:20;10.40;99.90
10512;DHT22;5304;48.604;2.096;2022-12-20T10:04:11;10.40;99.90
10512;DHT22;5304;48.604;2.096;2022-12-20T10:10:50;10.40;99.90
10512;DHT22;5304;48.604;2.096;2022-12-20T10:16:50;10.50;99.90
10512;DHT22;5304;48.604;2.096;2022-12-20T10:22:56;10.60;99.90
10512;DHT22;5304;48.604;2.096;2022-12-20T10:25:43;10.60;99.90
10512;DHT22;5304;48.604;2.096;2022-12-20T10:28:33;10.60;99.90
10512;DHT22;5304;48.604;2.096;2022-12-20T10:31:18;10.60;99.90
10512;DHT22;5304;48.604;2.096;2022-12-20T10:34:02;10.60;99.90
10512;DHT22;5304;48.604;2.096;2022-12-20T10:36:48;10.60;99.90
10512;DHT22;5304;48.604;2.096;2022-12-20T10:39:52;10.50;99.90
10512;DHT22;5304;48.604;2.096;2022-12-20T10:42:39;10.50;99.90
10512;DHT22;5304;48.604;2.096;2022-12-20T10:45:42;10.50;99.90
10512;DHT22;5304;48.604;2.096;2022-12-20T10:51:20;10.40;99.90
10512;DHT22;5304;48.604;2.096;2022-12-20T10:54:38;10.40;99.90
10512;DHT22;5304;48.604;2.096;2022-12-20T10:57:27;10.40;99.90
10512;DHT22;5304;48.604;2.096;2022-12-20T11:00:27;10.40;99.90
10512;DHT22;5304;48.604;2.096;2022-12-20T11:03:20;10.40;99.90
10512;DHT22;5304;48.604;2.096;2022-12-20T11:06:15;10.40;99.90
10512;DHT22;5304;48.604;2.096;2022-12-20T11:12:14;10.40;99.90
10512;DHT22;5304;48.604;2.096;2022-12-20T11:15:18;10.50;99.90
10512;DHT22;5304;48.604;2.096;2022-12-20T11:18:09;10.50;99.90
10512;DHT22;5304;48.604;2.096;2022-12-20T11:23:50;10.50;99.90
10512;DHT22;5304;48.604;2.096;2022-12-20T11:30:42;10.50;99.90
10512;DHT22;5304;48.604;2.096;2022-12-20T11:42:26;10.60;99.90
10512;DHT22;5304;48.604;2.096;2022-12-20T11:51:48;10.60;99.90
10512;DHT22;5304;48.604;2.096;2022-12-20T11:54:40;10.60;99.90
10512;DHT22;5304;48.604;2.096;2022-12-20T11:57:31;10.50;99.90
10512;DHT22;5304;48.604;2.096;2022-12-20T12:00:24;10.50;99.90
10512;DHT22;5304;48.604;2.096;2022-12-20T12:06:28;10.70;99.90
10512;DHT22;5304;48.604;2.096;2022-12-20T12:09:16;10.70;99.90
10512;DHT22;5304;48.604;2.096;2022-12-20T12:12:20;10.70;99.90
10512;DHT22;5304;48.604;2.096;2022-12-20T12:18:33;10.80;99.90
10512;DHT22;5304;48.604;2.096;2022-12-20T12:24:34;11.00;99.90
10512;DHT22;5304;48.604;2.096;2022-12-20T12:27:25;11.00;99.90
10512;DHT22;5304;48.604;2.096;2022-12-20T12:30:14;11.10;99.90
10512;DHT22;5304;48.604;2.096;2022-12-20T12:33:03;11.10;99.90
10512;DHT22;5304;48.604;2.096;2022-12-20T12:35:55;11.20;99.90
10512;DHT22;5304;48.604;2.096;2022-12-20T12:39:20;11.10;99.90
10512;DHT22;5304;48.604;2.096;2022-12-20T12:42:22;11.20;99.90
10512;DHT22;5304;48.604;2.096;2022-12-20T12:50:52;11.00;99.90
10512;DHT22;5304;48.604;2.096;2022-12-20T12:53:47;11.00;99.90
10512;DHT22;5304;48.604;2.096;2022-12-20T12:56:43;11.10;99.90
10512;DHT22;5304;48.604;2.096;2022-12-20T13:02:23;11.10;99.90
10512;DHT22;5304;48.604;2.096;2022-12-20T13:07:53;11.20;99.90
10512;DHT22;5304;48.604;2.096;2022-12-20T13:13:23;11.30;99.90
10512;DHT22;5304;48.604;2.096;2022-12-20T13:16:11;11.30;99.90
10512;DHT22;5304;48.604;2.096;2022-12-20T13:19:03;11.30;99.90
10512;DHT22;5304;48.604;2.096;2022-12-20T13:25:01;11.30;99.90
10512;DHT22;5304;48.604;2.096;2022-12-20T13:27:47;11.20;99.90
10512;DHT22;5304;48.604;2.096;2022-12-20T13:30:31;11.20;99.90
10512;DHT22;5304;48.604;2.096;2022-12-20T13:33:40;11.30;99.90
10512;DHT22;5304;48.604;2.096;2022-12-20T13:36:34;11.30;99.90
10512;DHT22;5304;48.604;2.096;2022-12-20T13:42:32;11.30;99.90
10512;DHT22;5304;48.604;2.096;2022-12-20T13:45:17;11.30;99.90
10512;DHT22;5304;48.604;2.096;2022-12-20T13:48:02;11.30;99.90
10512;DHT22;5304;48.604;2.096;2022-12-20T13:50:50;11.30;99.90
10512;DHT22;5304;48.604;2.096;2022-12-20T13:53:36;11.20;99.90
10512;DHT22;5304;48.604;2.096;2022-12-20T13:59:27;11.20;99.90
10512;DHT22;5304;48.604;2.096;2022-12-20T14:02:20;11.20;99.90
10512;DHT22;5304;48.604;2.096;2022-12-20T14:05:26;11.20;99.90
10512;DHT22;5304;48.604;2.096;2022-12-20T14:08:17;11.20;99.90
10512;DHT22;5304;48.604;2.096;2022-12-20T14:11:13;11.20;99.90
10512;DHT22;5304;48.604;2.096;2022-12-20T14:14:02;11.20;99.90
10512;DHT22;5304;48.604;2.096;2022-12-20T14:16:47;11.10;99.90
10512;DHT22;5304;48.604;2.096;2022-12-20T14:19:31;11.20;99.90
10512;DHT22;5304;48.604;2.096;2022-12-20T14:22:16;11.10;99.90
10512;DHT22;5304;48.604;2.096;2022-12-20T14:25:02;11.20;99.90
10512;DHT22;5304;48.604;2.096;2022-12-20T14:27:48;11.20;99.90
10512;DHT22;5304;48.604;2.096;2022-12-20T14:30:41;11.10;99.90
10512;DHT22;5304;48.604;2.096;2022-12-20T14:33:38;11.10;99.90
10512;DHT22;5304;48.604;2.096;2022-12-20T14:36:23;11.10;99.90
10512;DHT22;5304;48.604;2.096;2022-12-20T14:39:30;11.10;99.90
10512;DHT22;5304;48.604;2.096;2022-12-20T14:42:18;11.00;99.90
10512;DHT22;5304;48.604;2.096;2022-12-20T14:48:03;11.00;99.90
10512;DHT22;5304;48.604;2.096;2022-12-20T14:50:51;11.00;99.90
10512;DHT22;5304;48.604;2.096;2022-12-20T14:53:38;11.00;99.90
10512;DHT22;5304;48.604;2.096;2022-12-20T14:56:23;11.00;99.90
10512;DHT22;5304;48.604;2.096;2022-12-20T14:59:16;10.90;99.90
10512;DHT22;5304;48.604;2.096;2022-12-20T15:02:34;10.90;99.90
10512;DHT22;5304;48.604;2.096;2022-12-20T15:08:29;10.90;99.90
10512;DHT22;5304;48.604;2.096;2022-12-20T15:11:20;10.90;99.90
10512;DHT22;5304;48.604;2.096;2022-12-20T15:17:10;10.90;99.90
10512;DHT22;5304;48.604;2.096;2022-12-20T15:19:55;10.90;99.90
10512;DHT22;5304;48.604;2.096;2022-12-20T15:22:39;10.90;99.90
10512;DHT22;5304;48.604;2.096;2022-12-20T15:25:24;10.90;99.90
10512;DHT22;5304;48.604;2.096;2022-12-20T15:28:20;10.90;99.90
10512;DHT22;5304;48.604;2.096;2022-12-20T15:31:05;10.90;99.90
10512;DHT22;5304;48.604;2.096;2022-12-20T15:33:49;10.90;99.90
10512;DHT22;5304;48.604;2.096;2022-12-20T15:36:34;10.90;99.90
10512;DHT22;5304;48.604;2.096;2022-12-20T15:39:18;10.90;99.90
10512;DHT22;5304;48.604;2.096;2022-12-20T15:42:04;10.90;99.90
10512;DHT22;5304;48.604;2.096;2022-12-20T15:44:49;10.90;99.90
10512;DHT22;5304;48.604;2.096;2022-12-20T15:47:34;10.90;99.90
10512;DHT22;5304;48.604;2.096;2022-12-20T15:50:18;10.90;99.90
10512;DHT22;5304;48.604;2.096;2022-12-20T15:53:03;10.90;99.90
10512;DHT22;5304;48.604;2.096;2022-12-20T15:55:49;10.90;99.90
10512;DHT22;5304;48.604;2.096;2022-12-20T15:58:34;10.90;99.90
10512;DHT22;5304;48.604;2.096;2022-12-20T16:01:34;10.90;99.90
10512;DHT22;5304;48.604;2.096;2022-12-20T16:04:21;11.00;99.90
10512;DHT22;5304;48.604;2.096;2022-12-20T16:07:09;11.00;99.90
10512;DHT22;5304;48.604;2.096;2022-12-20T16:09:54;11.00;99.90
10512;DHT22;5304;48.604;2.096;2022-12-20T16:12:39;11.00;99.90
10512;DHT22;5304;48.604;2.096;2022-12-20T16:15:25;11.10;99.90
10512;DHT22;5304;48.604;2.096;2022-12-20T16:18:09;11.00;99.90
10512;DHT22;5304;48.604;2.096;2022-12-20T16:20:54;11.00;99.90
10512;DHT22;5304;48.604;2.096;2022-12-20T16:23:38;11.00;99.90
10512;DHT22;5304;48.604;2.096;2022-12-20T16:26:24;11.10;99.90
10512;DHT22;5304;48.604;2.096;2022-12-20T16:29:10;11.10;99.90
10512;DHT22;5304;48.604;2.096;2022-12-20T16:31:54;11.10;99.90
10512;DHT22;5304;48.604;2.096;2022-12-20T16:34:39;11.10;99.90
10512;DHT22;5304;48.604;2.096;2022-12-20T16:37:23;11.20;99.90
10512;DHT22;5304;48.604;2.096;2022-12-20T16:40:09;11.10;99.90
10512;DHT22;5304;48.604;2.096;2022-12-20T16:42:57;11.10;99.90
10512;DHT22;5304;48.604;2.096;2022-12-20T16:45:42;11.10;99.90
10512;DHT22;5304;48.604;2.096;2022-12-20T16:48:27;11.20;99.90
10512;DHT22;5304;48.604;2.096;2022-12-20T16:51:26;11.20;99.90
10512;DHT22;5304;48.604;2.096;2022-12-20T16:54:16;11.20;99.90
10512;DHT22;5304;48.604;2.096;2022-12-20T16:57:03;11.10;99.90
10512;DHT22;5304;48.604;2.096;2022-12-20T16:59:47;11.20;99.90
10512;DHT22;5304;48.604;2.096;2022-12-20T17:02:33;11.20;99.90
10512;DHT22;5304;48.604;2.096;2022-12-20T17:05:24;11.20;99.90
10512;DHT22;5304;48.604;2.096;2022-12-20T17:08:08;11.30;99.90
10512;DHT22;5304;48.604;2.096;2022-12-20T17:10:53;11.30;99.90
10512;DHT22;5304;48.604;2.096;2022-12-20T17:13:37;11.30;99.90
10512;DHT22;5304;48.604;2.096;2022-12-20T17:16:22;11.30;99.90
10512;DHT22;5304;48.604;2.096;2022-12-20T17:19:08;11.20;99.90
10512;DHT22;5304;48.604;2.096;2022-12-20T17:21:53;11.30;99.90
10512;DHT22;5304;48.604;2.096;2022-12-20T17:24:38;11.30;99.90
10512;DHT22;5304;48.604;2.096;2022-12-20T17:27:23;11.40;99.90
10512;DHT22;5304;48.604;2.096;2022-12-20T17:30:08;11.30;99.90
10512;DHT22;5304;48.604;2.096;2022-12-20T17:32:53;11.30;99.90
10512;DHT22;5304;48.604;2.096;2022-12-20T17:35:37;11.30;99.90
10512;DHT22;5304;48.604;2.096;2022-12-20T17:38:22;11.40;99.90
10512;DHT22;5304;48.604;2.096;2022-12-20T17:41:20;11.50;99.90
10512;DHT22;5304;48.604;2.096;2022-12-20T17:44:05;11.40;99.90
10512;DHT22;5304;48.604;2.096;2022-12-20T17:46:51;11.40;99.90
10512;DHT22;5304;48.604;2.096;2022-12-20T17:49:35;11.40;99.90
10512;DHT22;5304;48.604;2.096;2022-12-20T17:52:20;11.50;99.90
10512;DHT22;5304;48.604;2.096;2022-12-20T17:55:05;11.50;99.90
10512;DHT22;5304;48.604;2.096;2022-12-20T17:57:50;11.40;99.90
10512;DHT22;5304;48.604;2.096;2022-12-20T18:00:36;11.50;99.90
10512;DHT22;5304;48.604;2.096;2022-12-20T18:03:20;11.50;99.90
10512;DHT22;5304;48.604;2.096;2022-12-20T18:06:05;11.50;99.90
10512;DHT22;5304;48.604;2.096;2022-12-20T18:08:51;11.50;99.90
10512;DHT22;5304;48.604;2.096;2022-12-20T18:11:36;11.50;99.90
10512;DHT22;5304;48.604;2.096;2022-12-20T18:14:20;11.40;99.90
10512;DHT22;5304;48.604;2.096;2022-12-20T18:17:05;11.40;99.90
10512;DHT22;5304;48.604;2.096;2022-12-20T18:19:49;11.30;99.90
10512;DHT22;5304;48.604;2.096;2022-12-20T18:22:35;11.30;99.90
10512;DHT22;5304;48.604;2.096;2022-12-20T18:25:20;11.30;99.90
10512;DHT22;5304;48.604;2.096;2022-12-20T18:28:04;11.30;99.90
10512;DHT22;5304;48.604;2.096;2022-12-20T18:30:50;11.30;99.90
10512;DHT22;5304;48.604;2.096;2022-12-20T18:33:34;11.20;99.90
10512;DHT22;5304;48.604;2.096;2022-12-20T18:36:22;11.20;99.90
10512;DHT22;5304;48.604;2.096;2022-12-20T18:39:07;11.20;99.90
10512;DHT22;5304;48.604;2.096;2022-12-20T18:41:52;11.20;99.90
10512;DHT22;5304;48.604;2.096;2022-12-20T18:44:36;11.20;99.90
10512;DHT22;5304;48.604;2.096;2022-12-20T18:47:21;11.20;99.90
10512;DHT22;5304;48.604;2.096;2022-12-20T18:50:06;11.20;99.90
10512;DHT22;5304;48.604;2.096;2022-12-20T18:52:50;11.20;99.90
10512;DHT22;5304;48.604;2.096;2022-12-20T18:55:36;11.20;99.90
10512;DHT22;5304;48.604;2.096;2022-12-20T18:58:21;11.10;99.90
10512;DHT22;5304;48.604;2.096;2022-12-20T19:01:09;11.10;99.90
10512;DHT22;5304;48.604;2.096;2022-12-20T19:03:56;11.10;99.90
10512;DHT22;5304;48.604;2.096;2022-12-20T19:06:42;11.20;99.90
10512;DHT22;5304;48.604;2.096;2022-12-20T19:09:27;11.20;99.90
10512;DHT22;5304;48.604;2.096;2022-12-20T19:12:11;11.20;99.90
10512;DHT22;5304;48.604;2.096;2022-12-20T19:14:56;11.20;99.90
10512;DHT22;5304;48.604;2.096;2022-12-20T19:17:40;11.20;99.90
10512;DHT22;5304;48.604;2.096;2022-12-20T19:20:25;11.20;99.90
10512;DHT22;5304;48.604;2.096;2022-12-20T19:23:10;11.20;99.90
10512;DHT22;5304;48.604;2.096;2022-12-20T19:25:59;11.20;99.90
10512;DHT22;5304;48.604;2.096;2022-12-20T19:28:45;11.20;99.90
10512;DHT22;5304;48.604;2.096;2022-12-20T19:31:32;11.20;99.90
10512;DHT22;5304;48.604;2.096;2022-12-20T19:34:16;11.20;99.90
10512;DHT22;5304;48.604;2.096;2022-12-20T19:37:02;11.30;99.90
10512;DHT22;5304;48.604;2.096;2022-12-20T19:39:46;11.20;99.90